createdAt,value
2018-11-28T00:00:03.494Z,100758.80
2018-11-28T00:00:38.197Z,100755.81
2018-11-28T00:01:12.843Z,100754.98
2018-11-28T00:01:47.467Z,100754.55
2018-11-28T00:02:22.129Z,100757.09
2018-11-28T00:02:56.859Z,100754.12
2018-11-28T00:03:31.529Z,100756.69
2018-11-28T00:04:06.325Z,100763.91
2018-11-28T00:04:40.979Z,100766.48
2018-11-28T00:05:15.740Z,100763.94
2018-11-28T00:05:50.851Z,100769.89
2018-11-28T00:06:26.017Z,100769.91
2018-11-28T00:07:00.685Z,100775.00
2018-11-28T00:07:35.334Z,100775.87
2018-11-28T00:08:09.998Z,100779.69
2018-11-28T00:08:44.729Z,100779.69
2018-11-28T00:09:19.653Z,100775.87
2018-11-28T00:09:54.400Z,100781.42
2018-11-28T00:10:29.135Z,100778.44
2018-11-28T00:11:03.824Z,100775.02
2018-11-28T00:11:38.613Z,100773.31
2018-11-28T00:12:13.290Z,100779.28
2018-11-28T00:12:47.919Z,100778.41
2018-11-28T00:13:22.943Z,100770.33
2018-11-28T00:13:57.575Z,100772.89
2018-11-28T00:14:32.377Z,100783.13
2018-11-28T00:15:08.657Z,100780.97
2018-11-28T00:15:43.306Z,100774.16
2018-11-28T00:16:17.925Z,100775.86
2018-11-28T00:16:52.613Z,100773.30
2018-11-28T00:17:27.242Z,100775.42
2018-11-28T00:18:01.992Z,100770.75
2018-11-28T00:18:36.645Z,100778.02
2018-11-28T00:19:11.285Z,100778.41
2018-11-28T00:19:45.889Z,100775.86
2018-11-28T00:20:21.489Z,100779.72
2018-11-28T00:20:56.169Z,100772.87
2018-11-28T00:21:30.850Z,100775.44
2018-11-28T00:22:05.591Z,100773.75
2018-11-28T00:22:40.408Z,100778.41
2018-11-28T00:23:15.136Z,100777.13
2018-11-28T00:23:49.746Z,100776.71
2018-11-28T00:24:24.419Z,100778.86
2018-11-28T00:24:59.071Z,100775.86
2018-11-28T00:25:33.764Z,100777.16
2018-11-28T00:26:08.512Z,100773.72
2018-11-28T00:26:43.209Z,100775.02
2018-11-28T00:27:17.853Z,100780.98
2018-11-28T00:27:52.638Z,100777.98
2018-11-28T00:28:27.263Z,100779.28
2018-11-28T00:29:01.969Z,100777.13
2018-11-28T00:29:36.709Z,100778.41
2018-11-28T00:30:20.977Z,100779.71
2018-11-28T00:30:55.804Z,100770.33
2018-11-28T00:31:30.822Z,100776.72
2018-11-28T00:32:06.747Z,100765.63
2018-11-28T00:32:42.074Z,100766.49
2018-11-28T00:33:16.958Z,100778.00
2018-11-28T00:33:52.102Z,100771.62
2018-11-28T00:34:27.030Z,100774.16
2018-11-28T00:35:02.208Z,100769.48
2018-11-28T00:35:37.421Z,100772.88
2018-11-28T00:36:12.395Z,100775.02
2018-11-28T00:36:47.347Z,100778.84
2018-11-28T00:37:22.168Z,100775.45
2018-11-28T00:37:57.029Z,100772.47
2018-11-28T00:38:32.078Z,100777.58
2018-11-28T00:39:08.703Z,100766.48
2018-11-28T00:39:43.743Z,100771.59
2018-11-28T00:40:19.964Z,100775.02
2018-11-28T00:40:54.634Z,100769.46
2018-11-28T00:41:29.353Z,100772.45
2018-11-28T00:42:04.448Z,100769.89
2018-11-28T00:42:39.115Z,100765.20
2018-11-28T00:43:13.800Z,100766.07
2018-11-28T00:43:48.438Z,100774.14
2018-11-28T00:44:23.132Z,100770.30
2018-11-28T00:44:58.378Z,100775.00
2018-11-28T00:45:33.261Z,100770.32
2018-11-28T00:46:07.927Z,100773.30
2018-11-28T00:46:42.544Z,100776.29
2018-11-28T00:47:17.244Z,100781.38
2018-11-28T00:47:52.238Z,100776.69
2018-11-28T00:48:26.970Z,100775.01
2018-11-28T00:49:01.859Z,100776.72
2018-11-28T00:49:36.514Z,100777.55
2018-11-28T00:50:13.501Z,100776.28
2018-11-28T00:50:48.170Z,100775.44
2018-11-28T00:51:22.849Z,100772.02
2018-11-28T00:51:57.520Z,100778.00
2018-11-28T00:52:32.338Z,100771.61
2018-11-28T00:53:07.354Z,100772.86
2018-11-28T00:53:41.948Z,100776.28
2018-11-28T00:54:16.578Z,100770.73
2018-11-28T00:54:51.230Z,100773.73
2018-11-28T00:55:26.301Z,100775.41
2018-11-28T00:56:00.986Z,100772.45
2018-11-28T00:56:35.730Z,100777.15
2018-11-28T00:57:10.397Z,100775.42
2018-11-28T00:57:45.426Z,100774.59
2018-11-28T00:58:20.041Z,100770.33
2018-11-28T00:58:54.645Z,100775.02
2018-11-28T00:59:29.291Z,100775.02
2018-11-28T01:00:05.588Z,100774.17
2018-11-28T01:00:40.242Z,100766.91
2018-11-28T01:01:14.994Z,100772.03
2018-11-28T01:01:49.601Z,100770.73
2018-11-28T01:02:24.327Z,100766.06
2018-11-28T01:02:58.952Z,100760.94
2018-11-28T01:03:33.581Z,100763.06
2018-11-28T01:04:08.221Z,100765.63
2018-11-28T01:04:42.821Z,100766.05
2018-11-28T01:05:17.627Z,100761.80
2018-11-28T01:05:52.262Z,100764.34
2018-11-28T01:06:26.915Z,100766.92
2018-11-28T01:07:04.017Z,100767.35
2018-11-28T01:07:38.664Z,100766.48
2018-11-28T01:08:13.338Z,100770.31
2018-11-28T01:08:47.989Z,100763.92
2018-11-28T01:09:22.597Z,100765.63
2018-11-28T01:09:57.239Z,100763.52
2018-11-28T01:10:31.994Z,100766.08
2018-11-28T01:11:07.148Z,100720.87
2018-11-28T01:11:41.758Z,100767.77
2018-11-28T01:12:16.370Z,100763.51
2018-11-28T01:12:51.889Z,100768.18
2018-11-28T01:13:26.540Z,100770.75
2018-11-28T01:14:01.278Z,100767.34
2018-11-28T01:14:35.945Z,100766.44
2018-11-28T01:15:12.912Z,100762.63
2018-11-28T01:15:47.588Z,100760.92
2018-11-28T01:16:22.198Z,100762.64
2018-11-28T01:16:56.910Z,100756.25
2018-11-28T01:17:31.533Z,100758.39
2018-11-28T01:18:07.055Z,100760.95
2018-11-28T01:18:41.692Z,100761.78
2018-11-28T01:19:16.399Z,100757.53
2018-11-28T01:19:51.042Z,100758.38
2018-11-28T01:20:25.744Z,100756.25
2018-11-28T01:21:00.496Z,100754.13
2018-11-28T01:21:35.135Z,100750.30
2018-11-28T01:22:09.751Z,100754.11
2018-11-28T01:22:44.504Z,100754.96
2018-11-28T01:23:19.498Z,100760.08
2018-11-28T01:23:54.114Z,100757.11
2018-11-28T01:24:28.734Z,100759.20
2018-11-28T01:25:03.377Z,100754.51
2018-11-28T01:25:38.004Z,100755.36
2018-11-28T01:26:12.714Z,100757.91
2018-11-28T01:26:47.420Z,100754.09
2018-11-28T01:27:22.113Z,100754.11
2018-11-28T01:27:56.727Z,100757.11
2018-11-28T01:28:31.382Z,100751.14
2018-11-28T01:29:06.489Z,100738.36
2018-11-28T01:29:41.193Z,100750.72
2018-11-28T01:30:19.792Z,100743.48
2018-11-28T01:30:54.423Z,100746.01
2018-11-28T01:31:29.084Z,100755.41
2018-11-28T01:32:03.774Z,100757.53
2018-11-28T01:32:38.491Z,100745.59
2018-11-28T01:33:13.203Z,100755.41
2018-11-28T01:33:47.834Z,100756.23
2018-11-28T01:34:22.530Z,100755.81
2018-11-28T01:34:57.136Z,100746.45
2018-11-28T01:35:31.905Z,100751.14
2018-11-28T01:36:06.608Z,100749.42
2018-11-28T01:36:41.212Z,100754.12
2018-11-28T01:37:15.828Z,100751.58
2018-11-28T01:37:50.473Z,100750.70
2018-11-28T01:38:25.113Z,100754.11
2018-11-28T01:38:59.758Z,100751.14
2018-11-28T01:39:34.464Z,100750.27
2018-11-28T01:40:27.009Z,100754.10
2018-11-28T01:41:01.794Z,100748.14
2018-11-28T01:41:36.459Z,100751.98
2018-11-28T01:42:11.113Z,100749.02
2018-11-28T01:42:46.361Z,100749.44
2018-11-28T01:43:20.974Z,100741.77
2018-11-28T01:43:55.593Z,100746.44
2018-11-28T01:44:30.234Z,100747.30
2018-11-28T01:45:05.184Z,100750.28
2018-11-28T01:45:39.835Z,100748.56
2018-11-28T01:46:14.592Z,100749.86
2018-11-28T01:46:49.224Z,100748.55
2018-11-28T01:47:23.849Z,100751.98
2018-11-28T01:47:58.509Z,100749.82
2018-11-28T01:48:33.206Z,100746.42
2018-11-28T01:49:07.941Z,100742.58
2018-11-28T01:49:42.566Z,100747.27
2018-11-28T01:50:19.087Z,100744.70
2018-11-28T01:50:53.722Z,100743.41
2018-11-28T01:51:28.374Z,100745.97
2018-11-28T01:52:03.269Z,100749.82
2018-11-28T01:52:38.331Z,100744.70
2018-11-28T01:53:12.967Z,100745.53
2018-11-28T01:53:47.633Z,100749.78
2018-11-28T01:54:22.253Z,100751.50
2018-11-28T01:54:56.864Z,100743.81
2018-11-28T01:55:31.665Z,100749.79
2018-11-28T01:56:06.322Z,100751.45
2018-11-28T01:56:40.947Z,100747.65
2018-11-28T01:57:15.559Z,100751.03
2018-11-28T01:57:50.576Z,100746.80
2018-11-28T01:58:25.165Z,100745.92
2018-11-28T01:58:59.815Z,100751.91
2018-11-28T01:59:34.461Z,100747.64
2018-11-28T02:00:11.982Z,100748.91
2018-11-28T02:00:46.811Z,100749.36
2018-11-28T02:01:21.408Z,100753.19
2018-11-28T02:01:56.122Z,100751.48
2018-11-28T02:02:30.801Z,100747.64
2018-11-28T02:03:05.975Z,100749.77
2018-11-28T02:03:40.672Z,100743.78
2018-11-28T02:04:15.388Z,100742.51
2018-11-28T02:04:50.102Z,100753.58
2018-11-28T02:05:25.084Z,100750.15
2018-11-28T02:05:59.714Z,100746.73
2018-11-28T02:06:34.534Z,100745.46
2018-11-28T02:07:09.193Z,100751.84
2018-11-28T02:07:43.847Z,100746.75
2018-11-28T02:08:18.472Z,100753.98
2018-11-28T02:08:53.079Z,100752.28
2018-11-28T02:09:27.751Z,100758.25
2018-11-28T02:10:02.851Z,100750.14
2018-11-28T02:10:37.602Z,100760.77
2018-11-28T02:11:12.279Z,100758.23
2018-11-28T02:11:46.889Z,100755.64
2018-11-28T02:12:21.520Z,100750.09
2018-11-28T02:12:56.140Z,100756.91
2018-11-28T02:13:30.835Z,100755.17
2018-11-28T02:14:05.981Z,100756.91
2018-11-28T02:14:40.616Z,100756.05
2018-11-28T02:15:21.149Z,100757.72
2018-11-28T02:15:55.790Z,100750.48
2018-11-28T02:16:30.546Z,100753.07
2018-11-28T02:17:05.225Z,100755.64
2018-11-28T02:17:39.920Z,100755.23
2018-11-28T02:18:14.548Z,100753.50
2018-11-28T02:18:49.250Z,100751.38
2018-11-28T02:19:23.876Z,100748.40
2018-11-28T02:19:58.496Z,100750.09
2018-11-28T02:20:33.353Z,100747.95
2018-11-28T02:21:08.000Z,100749.66
2018-11-28T02:21:42.762Z,100750.06
2018-11-28T02:22:17.401Z,100743.70
2018-11-28T02:22:52.078Z,100752.22
2018-11-28T02:23:26.702Z,100751.73
2018-11-28T02:24:01.474Z,100741.92
2018-11-28T02:24:36.160Z,100746.60
2018-11-28T02:25:13.117Z,100742.34
2018-11-28T02:25:47.723Z,100743.63
2018-11-28T02:26:22.386Z,100748.78
2018-11-28T02:26:57.061Z,100742.39
2018-11-28T02:27:31.828Z,100740.68
2018-11-28T02:28:06.631Z,100738.98
2018-11-28T02:28:41.326Z,100745.34
2018-11-28T02:29:15.940Z,100741.94
2018-11-28T02:29:50.669Z,100746.19
2018-11-28T02:30:25.672Z,100743.22
2018-11-28T02:31:00.353Z,100738.95
2018-11-28T02:31:35.050Z,100743.17
2018-11-28T02:32:09.677Z,100744.45
2018-11-28T02:32:44.936Z,100742.31
2018-11-28T02:33:19.667Z,100734.23
2018-11-28T02:33:54.298Z,100741.91
2018-11-28T02:34:29.078Z,100738.08
2018-11-28T02:35:04.069Z,100740.18
2018-11-28T02:35:38.708Z,100738.47
2018-11-28T02:36:13.553Z,100735.91
2018-11-28T02:36:48.186Z,100732.48
2018-11-28T02:37:22.785Z,100735.48
2018-11-28T02:37:57.840Z,100731.59
2018-11-28T02:38:32.618Z,100736.75
2018-11-28T02:39:10.309Z,100741.47
2018-11-28T02:39:44.931Z,100738.89
2018-11-28T02:40:20.156Z,100739.73
2018-11-28T02:40:54.789Z,100741.41
2018-11-28T02:41:29.384Z,100742.70
2018-11-28T02:42:04.133Z,100738.45
2018-11-28T02:42:39.114Z,100739.29
2018-11-28T02:43:13.889Z,100739.73
2018-11-28T02:43:48.435Z,100739.28
2018-11-28T02:44:23.058Z,100746.55
2018-11-28T02:44:57.805Z,100742.68
2018-11-28T02:45:32.464Z,100747.34
2018-11-28T02:46:18.414Z,100743.93
2018-11-28T02:46:53.244Z,100742.66
2018-11-28T02:47:27.837Z,100740.93
2018-11-28T02:48:02.617Z,100744.74
2018-11-28T02:48:37.334Z,100743.50
2018-11-28T02:49:11.935Z,100741.75
2018-11-28T02:49:46.658Z,100744.30
2018-11-28T02:50:21.343Z,100742.21
2018-11-28T02:50:55.981Z,100750.69
2018-11-28T02:51:30.718Z,100749.81
2018-11-28T02:52:05.994Z,100745.55
2018-11-28T02:52:41.341Z,100748.09
2018-11-28T02:53:16.024Z,100748.53
2018-11-28T02:53:50.642Z,100751.08
2018-11-28T02:54:25.267Z,100748.52
2018-11-28T02:54:59.894Z,100749.38
2018-11-28T02:55:34.712Z,100753.22
2018-11-28T02:56:09.323Z,100751.06
2018-11-28T02:56:43.989Z,100749.37
2018-11-28T02:57:18.596Z,100750.64
2018-11-28T02:57:53.210Z,100750.28
2018-11-28T02:58:27.815Z,100747.28
2018-11-28T02:59:02.933Z,100748.09
2018-11-28T02:59:37.570Z,100750.22
2018-11-28T03:00:15.664Z,100749.33
2018-11-28T03:00:50.952Z,100754.02
2018-11-28T03:01:25.578Z,100750.61
2018-11-28T03:02:00.604Z,100742.47
2018-11-28T03:02:35.470Z,100751.00
2018-11-28T03:03:10.265Z,100750.56
2018-11-28T03:03:44.882Z,100747.14
2018-11-28T03:04:19.481Z,100747.59
2018-11-28T03:04:54.124Z,100749.67
2018-11-28T03:05:28.890Z,100743.27
2018-11-28T03:06:03.929Z,100748.83
2018-11-28T03:06:38.773Z,100751.36
2018-11-28T03:07:13.389Z,100746.27
2018-11-28T03:07:48.055Z,100751.77
2018-11-28T03:08:22.678Z,100754.73
2018-11-28T03:08:57.300Z,100755.61
2018-11-28T03:09:31.941Z,100755.55
2018-11-28T03:10:10.336Z,100755.55
2018-11-28T03:10:47.196Z,100756.79
2018-11-28T03:11:21.790Z,100760.65
2018-11-28T03:11:56.411Z,100761.03
2018-11-28T03:12:31.306Z,100760.65
2018-11-28T03:13:06.597Z,100761.07
2018-11-28T03:13:41.257Z,100760.20
2018-11-28T03:14:15.892Z,100764.45
2018-11-28T03:14:50.726Z,100762.34
2018-11-28T03:15:32.530Z,100760.20
2018-11-28T03:16:10.661Z,100755.50
2018-11-28T03:16:45.353Z,100755.90
2018-11-28T03:17:26.164Z,100755.06
2018-11-28T03:18:01.397Z,100752.52
2018-11-28T03:18:36.084Z,100754.22
2018-11-28T03:19:10.764Z,100761.92
2018-11-28T03:19:45.395Z,100758.09
2018-11-28T03:20:20.085Z,100764.02
2018-11-28T03:20:54.826Z,100753.84
2018-11-28T03:21:29.430Z,100760.23
2018-11-28T03:22:04.061Z,100760.27
2018-11-28T03:22:38.873Z,100754.28
2018-11-28T03:23:13.584Z,100750.88
2018-11-28T03:23:48.373Z,100762.34
2018-11-28T03:24:23.020Z,100757.69
2018-11-28T03:24:57.642Z,100762.38
2018-11-28T03:25:32.345Z,100759.81
2018-11-28T03:26:07.073Z,100758.55
2018-11-28T03:26:41.720Z,100760.27
2018-11-28T03:27:16.389Z,100756.02
2018-11-28T03:27:51.121Z,100761.12
2018-11-28T03:28:26.114Z,100758.56
2018-11-28T03:29:00.846Z,100755.12
2018-11-28T03:29:35.542Z,100753.84
2018-11-28T03:30:12.850Z,100758.52
2018-11-28T03:30:47.515Z,100755.50
2018-11-28T03:31:22.159Z,100757.62
2018-11-28T03:31:56.783Z,100751.69
2018-11-28T03:32:31.477Z,100755.55
2018-11-28T03:33:06.267Z,100754.22
2018-11-28T03:33:41.027Z,100748.66
2018-11-28T03:34:15.793Z,100756.86
2018-11-28T03:34:50.417Z,100752.15
2018-11-28T03:35:25.544Z,100758.13
2018-11-28T03:36:00.174Z,100760.64
2018-11-28T03:36:34.815Z,100755.11
2018-11-28T03:37:11.712Z,100761.48
2018-11-28T03:37:46.326Z,100757.20
2018-11-28T03:38:21.025Z,100754.67
2018-11-28T03:38:55.648Z,100757.23
2018-11-28T03:39:30.258Z,100754.28
2018-11-28T03:40:05.334Z,100755.52
2018-11-28T03:40:40.047Z,100760.59
2018-11-28T03:41:14.659Z,100758.05
2018-11-28T03:41:49.388Z,100759.76
2018-11-28T03:42:24.392Z,100758.45
2018-11-28T03:42:59.075Z,100751.72
2018-11-28T03:43:36.664Z,100749.11
2018-11-28T03:44:11.351Z,100750.39
2018-11-28T03:44:45.959Z,100754.18
2018-11-28T03:45:20.835Z,100752.48
2018-11-28T03:45:55.498Z,100750.75
2018-11-28T03:46:30.119Z,100753.28
2018-11-28T03:47:05.218Z,100754.54
2018-11-28T03:47:39.860Z,100749.41
2018-11-28T03:48:14.623Z,100756.63
2018-11-28T03:48:49.266Z,100755.34
2018-11-28T03:49:23.869Z,100754.08
2018-11-28T03:49:58.553Z,100751.47
2018-11-28T03:50:33.255Z,100764.69
2018-11-28T03:51:07.848Z,100755.73
2018-11-28T03:51:42.477Z,100765.92
2018-11-28T03:52:17.142Z,100762.52
2018-11-28T03:52:51.770Z,100760.43
2018-11-28T03:53:26.485Z,100758.26
2018-11-28T03:54:01.097Z,100763.33
2018-11-28T03:54:35.759Z,100757.02
2018-11-28T03:55:11.836Z,100759.95
2018-11-28T03:55:47.025Z,100755.69
2018-11-28T03:56:21.795Z,100753.93
2018-11-28T03:56:56.480Z,100751.39
2018-11-28T03:57:31.206Z,100751.82
2018-11-28T03:58:05.939Z,100750.94
2018-11-28T03:58:40.558Z,100750.97
2018-11-28T03:59:15.231Z,100749.28
2018-11-28T03:59:49.957Z,100752.25
2018-11-28T04:00:24.693Z,100758.14
2018-11-28T04:00:59.420Z,100759.38
2018-11-28T04:01:34.027Z,100754.66
2018-11-28T04:02:08.643Z,100753.83
2018-11-28T04:02:43.345Z,100759.78
2018-11-28T04:03:18.025Z,100753.79
2018-11-28T04:03:52.657Z,100759.77
2018-11-28T04:04:27.366Z,100752.55
2018-11-28T04:05:02.035Z,100757.70
2018-11-28T04:05:37.232Z,100760.66
2018-11-28T04:06:11.890Z,100754.31
2018-11-28T04:06:46.517Z,100753.86
2018-11-28T04:07:21.313Z,100753.86
2018-11-28T04:07:55.924Z,100760.25
2018-11-28T04:08:30.553Z,100756.84
2018-11-28T04:09:08.241Z,100761.98
2018-11-28T04:09:42.925Z,100752.63
2018-11-28T04:10:17.938Z,100755.14
2018-11-28T04:10:52.642Z,100756.86
2018-11-28T04:11:27.382Z,100755.15
2018-11-28T04:12:02.015Z,100753.44
2018-11-28T04:12:36.634Z,100759.02
2018-11-28T04:13:11.250Z,100761.50
2018-11-28T04:13:46.006Z,100757.70
2018-11-28T04:14:21.428Z,100766.20
2018-11-28T04:14:56.152Z,100764.49
2018-11-28T04:15:31.259Z,100764.91
2018-11-28T04:16:06.856Z,100766.27
2018-11-28T04:16:41.482Z,100761.58
2018-11-28T04:17:16.072Z,100760.34
2018-11-28T04:17:50.797Z,100764.14
2018-11-28T04:18:25.511Z,100767.12
2018-11-28T04:19:00.204Z,100764.14
2018-11-28T04:19:34.805Z,100764.14
2018-11-28T04:20:11.603Z,100759.47
2018-11-28T04:20:46.289Z,100760.32
2018-11-28T04:21:21.076Z,100758.21
2018-11-28T04:21:55.696Z,100758.63
2018-11-28T04:22:30.358Z,100759.47
2018-11-28T04:23:05.292Z,100764.16
2018-11-28T04:23:39.916Z,100763.77
2018-11-28T04:24:14.601Z,100765.44
2018-11-28T04:24:49.278Z,100765.92
2018-11-28T04:25:24.467Z,100756.98
2018-11-28T04:25:59.284Z,100758.21
2018-11-28T04:26:33.926Z,100761.20
2018-11-28T04:27:08.555Z,100756.54
2018-11-28T04:27:43.736Z,100760.34
2018-11-28T04:29:21.867Z,100758.66
2018-11-28T04:29:56.535Z,100760.34
2018-11-28T04:30:31.268Z,100764.65
2018-11-28T04:31:06.390Z,100762.14
2018-11-28T04:31:41.168Z,100761.70
2018-11-28T04:32:15.803Z,100760.16
2018-11-28T04:32:51.340Z,100758.02
2018-11-28T04:33:26.218Z,100755.86
2018-11-28T04:34:00.937Z,100766.09
2018-11-28T04:34:35.603Z,100756.48
2018-11-28T04:35:12.296Z,100754.80
2018-11-28T04:35:46.923Z,100758.21
2018-11-28T04:36:21.667Z,100765.86
2018-11-28T04:36:56.313Z,100761.62
2018-11-28T04:37:30.965Z,100761.14
2018-11-28T04:38:05.977Z,100764.12
2018-11-28T04:38:40.610Z,100764.57
2018-11-28T04:39:15.289Z,100760.27
2018-11-28T04:39:49.967Z,100761.17
2018-11-28T04:40:24.774Z,100762.45
2018-11-28T04:40:59.414Z,100759.94
2018-11-28T04:41:34.102Z,100763.78
2018-11-28T04:42:08.693Z,100758.69
2018-11-28T04:42:43.661Z,100765.11
2018-11-28T04:43:18.320Z,100762.54
2018-11-28T04:43:53.065Z,100758.69
2018-11-28T04:44:27.837Z,100762.59
2018-11-28T04:45:02.821Z,100756.16
2018-11-28T04:45:37.470Z,100766.83
2018-11-28T04:46:12.190Z,100759.57
2018-11-28T04:46:46.904Z,100765.11
2018-11-28T04:47:21.631Z,100759.13
2018-11-28T04:47:56.581Z,100763.00
2018-11-28T04:48:31.266Z,100761.31
2018-11-28T04:49:06.106Z,100757.91
2018-11-28T04:49:40.746Z,100757.03
2018-11-28T04:50:15.811Z,100753.19
2018-11-28T04:50:50.475Z,100758.73
2018-11-28T04:51:25.662Z,100758.30
2018-11-28T04:52:00.385Z,100752.77
2018-11-28T04:52:35.019Z,100751.56
2018-11-28T04:53:09.641Z,100757.53
2018-11-28T04:53:44.296Z,100760.09
2018-11-28T04:54:18.984Z,100755.79
2018-11-28T04:54:53.690Z,100757.52
2018-11-28T04:55:28.322Z,100753.23
2018-11-28T04:56:02.947Z,100753.62
2018-11-28T04:56:37.550Z,100751.50
2018-11-28T04:57:12.228Z,100755.36
2018-11-28T04:57:47.486Z,100756.59
2018-11-28T04:58:22.203Z,100749.37
2018-11-28T04:58:56.907Z,100726.75
2018-11-28T04:59:31.536Z,100745.94
2018-11-28T05:00:10.911Z,100753.19
2018-11-28T05:00:45.587Z,100747.23
2018-11-28T05:01:20.305Z,100751.52
2018-11-28T05:01:55.022Z,100747.33
2018-11-28T05:02:29.645Z,100752.44
2018-11-28T05:03:04.296Z,100749.03
2018-11-28T05:03:38.925Z,100756.70
2018-11-28T05:04:13.670Z,100753.25
2018-11-28T05:04:48.428Z,100745.22
2018-11-28T05:05:23.870Z,100753.72
2018-11-28T05:05:58.542Z,100751.60
2018-11-28T05:07:41.267Z,100748.59
2018-11-28T05:08:15.885Z,100746.45
2018-11-28T05:08:50.606Z,100751.17
2018-11-28T05:09:25.291Z,100745.25
2018-11-28T05:10:00.116Z,100750.85
2018-11-28T05:10:34.700Z,100747.39
2018-11-28T05:11:09.311Z,100749.95
2018-11-28T05:11:44.147Z,100749.91
2018-11-28T05:12:18.842Z,100746.47
2018-11-28T05:12:54.089Z,100740.96
2018-11-28T05:13:28.877Z,100746.92
2018-11-28T05:14:03.615Z,100743.52
2018-11-28T05:14:38.313Z,100739.66
2018-11-28T05:15:16.101Z,100743.47
2018-11-28T05:15:50.840Z,100737.98
2018-11-28T05:16:25.573Z,100735.83
2018-11-28T05:17:00.527Z,100729.87
2018-11-28T05:17:35.219Z,100729.52
2018-11-28T05:18:09.817Z,100726.95
2018-11-28T05:18:44.509Z,100731.63
2018-11-28T05:19:19.125Z,100734.19
2018-11-28T05:19:53.896Z,100731.23
2018-11-28T05:20:31.030Z,100728.70
2018-11-28T05:21:05.948Z,100725.25
2018-11-28T05:21:40.658Z,100730.34
2018-11-28T05:22:15.691Z,100722.34
2018-11-28T05:22:50.366Z,100727.91
2018-11-28T05:23:25.007Z,100728.73
2018-11-28T05:23:59.710Z,100731.28
2018-11-28T05:24:34.464Z,100729.98
2018-11-28T05:25:16.318Z,100735.05
2018-11-28T05:25:51.082Z,100728.22
2018-11-28T05:26:25.862Z,100732.45
2018-11-28T05:27:00.645Z,100738.83
2018-11-28T05:27:35.269Z,100734.59
2018-11-28T05:28:10.015Z,100736.75
2018-11-28T05:28:44.884Z,100733.36
2018-11-28T05:29:19.486Z,100733.72
2018-11-28T05:29:54.172Z,100740.48
2018-11-28T05:30:30.245Z,100734.51
2018-11-28T05:31:05.277Z,100728.53
2018-11-28T05:31:39.987Z,100737.48
2018-11-28T05:32:15.060Z,100737.92
2018-11-28T05:32:49.726Z,100740.50
2018-11-28T05:33:24.346Z,100744.35
2018-11-28T05:33:58.990Z,100740.91
2018-11-28T05:34:33.810Z,100746.52
2018-11-28T05:35:13.667Z,100745.67
2018-11-28T05:35:48.336Z,100744.38
2018-11-28T05:36:22.929Z,100743.03
2018-11-28T05:36:57.683Z,100748.98
2018-11-28T05:37:32.499Z,100746.81
2018-11-28T05:38:10.362Z,100745.92
2018-11-28T05:38:45.064Z,100753.14
2018-11-28T05:39:19.814Z,100753.16
2018-11-28T05:39:54.492Z,100752.76
2018-11-28T05:40:30.012Z,100756.18
2018-11-28T05:41:05.219Z,100755.74
2018-11-28T05:41:40.864Z,100755.74
2018-11-28T05:42:14.459Z,100759.99
2018-11-28T05:42:49.286Z,100759.94
2018-11-28T05:43:23.969Z,100763.84
2018-11-28T05:43:58.658Z,100759.55
2018-11-28T05:44:33.348Z,100765.52
2018-11-28T05:45:10.709Z,100758.25
2018-11-28T05:45:45.377Z,100760.39
2018-11-28T05:46:19.996Z,100763.41
2018-11-28T05:46:55.041Z,100749.75
2018-11-28T05:47:30.172Z,100749.33
2018-11-28T05:48:05.006Z,100760.83
2018-11-28T05:48:39.609Z,100758.81
2018-11-28T05:49:15.179Z,100755.77
2018-11-28T05:49:48.892Z,100757.48
2018-11-28T05:50:24.038Z,100759.15
2018-11-28T05:50:58.762Z,100751.12
2018-11-28T05:51:33.583Z,100760.02
2018-11-28T05:52:08.274Z,100764.27
2018-11-28T05:52:42.897Z,100757.02
2018-11-28T05:53:17.531Z,100758.72
2018-11-28T05:53:52.143Z,100757.02
2018-11-28T05:54:26.760Z,100757.02
2018-11-28T05:55:01.427Z,100756.59
2018-11-28T05:55:36.088Z,100759.17
2018-11-28T05:56:10.782Z,100718.19
2018-11-28T05:56:45.396Z,100754.09
2018-11-28T05:57:20.120Z,100756.31
2018-11-28T05:57:54.785Z,100757.17
2018-11-28T05:58:30.059Z,100754.60
2018-11-28T05:59:04.736Z,100758.41
2018-11-28T05:59:39.365Z,100760.10
2018-11-28T06:00:46.027Z,100760.10
2018-11-28T06:01:20.809Z,100755.45
2018-11-28T06:01:55.476Z,100763.07
2018-11-28T06:02:30.302Z,100766.47
2018-11-28T06:03:05.861Z,100769.88
2018-11-28T06:03:40.517Z,100768.14
2018-11-28T06:04:15.148Z,100767.73
2018-11-28T06:04:49.744Z,100764.77
2018-11-28T06:05:24.536Z,100765.22
2018-11-28T06:05:59.245Z,100767.32
2018-11-28T06:06:33.925Z,100760.07
2018-11-28T06:07:08.656Z,100769.00
2018-11-28T06:07:43.359Z,100761.44
2018-11-28T06:08:18.072Z,100761.06
2018-11-28T06:08:52.720Z,100766.22
2018-11-28T06:09:27.423Z,100765.75
2018-11-28T06:10:02.169Z,100764.87
2018-11-28T06:10:36.991Z,100764.00
2018-11-28T06:11:11.620Z,100768.25
2018-11-28T06:11:46.222Z,100768.67
2018-11-28T06:12:20.934Z,100761.86
2018-11-28T06:12:55.609Z,100766.11
2018-11-28T06:13:30.751Z,100762.28
2018-11-28T06:14:06.094Z,100768.68
2018-11-28T06:14:40.859Z,100762.34
2018-11-28T06:15:15.525Z,100774.68
2018-11-28T06:15:50.184Z,100766.23
2018-11-28T06:16:24.794Z,100768.34
2018-11-28T06:16:59.473Z,100766.63
2018-11-28T06:17:34.260Z,100769.25
2018-11-28T06:18:09.950Z,100759.41
2018-11-28T06:18:44.648Z,100763.70
2018-11-28T06:19:19.348Z,100761.56
2018-11-28T06:19:53.977Z,100764.59
2018-11-28T06:20:28.695Z,100765.47
2018-11-28T06:21:03.510Z,100762.06
2018-11-28T06:21:38.204Z,100759.93
2018-11-28T06:22:12.954Z,100768.84
2018-11-28T06:22:47.653Z,100761.13
2018-11-28T06:23:22.315Z,100761.97
2018-11-28T06:23:56.969Z,100766.22
2018-11-28T06:24:32.182Z,100765.41
2018-11-28T06:25:15.586Z,100769.64
2018-11-28T06:25:43.584Z,100768.35
2018-11-28T06:26:18.224Z,100769.63
2018-11-28T06:26:52.881Z,100770.48
2018-11-28T06:27:27.516Z,100767.94
2018-11-28T06:28:02.199Z,100770.08
2018-11-28T06:28:36.888Z,100772.16
2018-11-28T06:29:11.666Z,100764.94
2018-11-28T06:29:46.280Z,100775.16
2018-11-28T06:30:21.361Z,100778.95
2018-11-28T06:30:56.023Z,100775.11
2018-11-28T06:31:30.980Z,100784.07
2018-11-28T06:32:06.014Z,100777.68
2018-11-28T06:32:41.043Z,100776.02
2018-11-28T06:33:15.646Z,100775.17
2018-11-28T06:33:50.330Z,100778.55
2018-11-28T06:34:25.045Z,100775.53
2018-11-28T06:34:59.697Z,100782.36
2018-11-28T06:35:34.427Z,100780.63
2018-11-28T06:36:09.061Z,100778.94
2018-11-28T06:36:43.701Z,100775.08
2018-11-28T06:37:18.322Z,100780.61
2018-11-28T06:37:52.975Z,100788.71
2018-11-28T06:38:27.687Z,100773.92
2018-11-28T06:39:02.432Z,100775.20
2018-11-28T06:39:37.040Z,100779.00
2018-11-28T06:40:16.354Z,100778.54
2018-11-28T06:40:51.017Z,100785.77
2018-11-28T06:41:25.738Z,100787.05